sensor_id;sensor_type;location;lat;lon;timestamp;P1;durP1;ratioP1;P2;durP2;ratioP2
74926;SDS011;63488;48.092;-1.640;2024-02-28T00:02:23;10.50;;;8.10;;
74926;SDS011;63488;48.092;-1.640;2024-02-28T00:04:49;11.00;;;8.30;;
74926;SDS011;63488;48.092;-1.640;2024-02-28T00:07:14;10.93;;;8.05;;
74926;SDS011;63488;48.092;-1.640;2024-02-28T00:09:39;12.75;;;8.27;;
74926;SDS011;63488;48.092;-1.640;2024-02-28T00:12:05;13.05;;;8.90;;
74926;SDS011;63488;48.092;-1.640;2024-02-28T00:14:30;14.02;;;8.35;;
74926;SDS011;63488;48.092;-1.640;2024-02-28T00:16:55;11.25;;;8.07;;
74926;SDS011;63488;48.092;-1.640;2024-02-28T00:19:21;13.80;;;8.30;;
74926;SDS011;63488;48.092;-1.640;2024-02-28T00:21:47;11.35;;;8.40;;
74926;SDS011;63488;48.092;-1.640;2024-02-28T00:24:12;11.98;;;9.02;;
74926;SDS011;63488;48.092;-1.640;2024-02-28T00:26:41;11.65;;;8.65;;
74926;SDS011;63488;48.092;-1.640;2024-02-28T00:29:07;11.82;;;8.75;;
74926;SDS011;63488;48.092;-1.640;2024-02-28T00:31:32;10.93;;;8.50;;
74926;SDS011;63488;48.092;-1.640;2024-02-28T00:33:58;13.23;;;8.50;;
74926;SDS011;63488;48.092;-1.640;2024-02-28T00:36:23;10.77;;;8.48;;
74926;SDS011;63488;48.092;-1.640;2024-02-28T00:38:48;12.70;;;8.13;;
74926;SDS011;63488;48.092;-1.640;2024-02-28T00:41:14;12.13;;;8.10;;
74926;SDS011;63488;48.092;-1.640;2024-02-28T00:43:39;10.55;;;7.85;;
74926;SDS011;63488;48.092;-1.640;2024-02-28T00:46:05;9.88;;;8.10;;
74926;SDS011;63488;48.092;-1.640;2024-02-28T00:48:34;10.93;;;7.47;;
74926;SDS011;63488;48.092;-1.640;2024-02-28T00:51:00;8.73;;;6.43;;
74926;SDS011;63488;48.092;-1.640;2024-02-28T00:53:25;10.35;;;7.35;;
74926;SDS011;63488;48.092;-1.640;2024-02-28T00:55:50;8.98;;;6.82;;
74926;SDS011;63488;48.092;-1.640;2024-02-28T00:58:17;8.40;;;6.32;;
74926;SDS011;63488;48.092;-1.640;2024-02-28T01:00:42;8.80;;;6.63;;
74926;SDS011;63488;48.092;-1.640;2024-02-28T01:03:07;9.77;;;6.85;;
74926;SDS011;63488;48.092;-1.640;2024-02-28T01:05:34;10.65;;;6.88;;
74926;SDS011;63488;48.092;-1.640;2024-02-28T01:07:59;8.60;;;6.35;;
74926;SDS011;63488;48.092;-1.640;2024-02-28T01:10:24;9.27;;;6.40;;
74926;SDS011;63488;48.092;-1.640;2024-02-28T01:12:50;9.13;;;6.38;;
74926;SDS011;63488;48.092;-1.640;2024-02-28T01:15:15;8.75;;;6.18;;
74926;SDS011;63488;48.092;-1.640;2024-02-28T01:17:40;10.10;;;6.22;;
74926;SDS011;63488;48.092;-1.640;2024-02-28T01:20:06;8.25;;;6.10;;
74926;SDS011;63488;48.092;-1.640;2024-02-28T01:22:32;8.68;;;5.65;;
74926;SDS011;63488;48.092;-1.640;2024-02-28T01:24:58;7.43;;;5.18;;
74926;SDS011;63488;48.092;-1.640;2024-02-28T01:27:23;6.60;;;5.28;;
74926;SDS011;63488;48.092;-1.640;2024-02-28T01:29:49;7.60;;;5.28;;
74926;SDS011;63488;48.092;-1.640;2024-02-28T01:32:14;7.45;;;4.88;;
74926;SDS011;63488;48.092;-1.640;2024-02-28T01:34:39;8.15;;;5.15;;
74926;SDS011;63488;48.092;-1.640;2024-02-28T01:37:04;8.35;;;5.22;;
74926;SDS011;63488;48.092;-1.640;2024-02-28T01:39:30;6.45;;;4.75;;
74926;SDS011;63488;48.092;-1.640;2024-02-28T01:41:55;6.57;;;4.68;;
74926;SDS011;63488;48.092;-1.640;2024-02-28T01:44:22;7.95;;;4.82;;
74926;SDS011;63488;48.092;-1.640;2024-02-28T01:46:47;7.10;;;4.72;;
74926;SDS011;63488;48.092;-1.640;2024-02-28T01:49:12;7.47;;;4.80;;
74926;SDS011;63488;48.092;-1.640;2024-02-28T01:51:38;8.57;;;5.00;;
74926;SDS011;63488;48.092;-1.640;2024-02-28T01:54:04;6.90;;;4.72;;
74926;SDS011;63488;48.092;-1.640;2024-02-28T01:56:29;7.22;;;4.75;;
74926;SDS011;63488;48.092;-1.640;2024-02-28T01:58:55;6.88;;;4.45;;
74926;SDS011;63488;48.092;-1.640;2024-02-28T02:01:21;7.97;;;4.45;;
74926;SDS011;63488;48.092;-1.640;2024-02-28T02:03:47;6.00;;;4.43;;
74926;SDS011;63488;48.092;-1.640;2024-02-28T02:06:12;10.65;;;5.07;;
74926;SDS011;63488;48.092;-1.640;2024-02-28T02:08:38;6.78;;;4.50;;
74926;SDS011;63488;48.092;-1.640;2024-02-28T02:11:04;8.25;;;4.78;;
74926;SDS011;63488;48.092;-1.640;2024-02-28T02:13:29;6.70;;;4.10;;
74926;SDS011;63488;48.092;-1.640;2024-02-28T02:15:55;5.97;;;4.10;;
74926;SDS011;63488;48.092;-1.640;2024-02-28T02:18:20;6.53;;;4.25;;
74926;SDS011;63488;48.092;-1.640;2024-02-28T02:20:46;5.72;;;4.35;;
74926;SDS011;63488;48.092;-1.640;2024-02-28T02:23:14;9.87;;;4.33;;
74926;SDS011;63488;48.092;-1.640;2024-02-28T02:25:46;6.68;;;3.85;;
74926;SDS011;63488;48.092;-1.640;2024-02-28T02:28:12;6.22;;;3.95;;
74926;SDS011;63488;48.092;-1.640;2024-02-28T02:30:37;7.53;;;4.55;;
74926;SDS011;63488;48.092;-1.640;2024-02-28T02:33:03;6.35;;;4.00;;
74926;SDS011;63488;48.092;-1.640;2024-02-28T02:35:29;5.88;;;3.80;;
74926;SDS011;63488;48.092;-1.640;2024-02-28T02:37:54;5.55;;;3.90;;
74926;SDS011;63488;48.092;-1.640;2024-02-28T02:40:19;5.38;;;4.20;;
74926;SDS011;63488;48.092;-1.640;2024-02-28T02:42:44;7.30;;;4.20;;
74926;SDS011;63488;48.092;-1.640;2024-02-28T02:45:10;5.25;;;3.83;;
74926;SDS011;63488;48.092;-1.640;2024-02-28T02:47:35;8.85;;;4.30;;
74926;SDS011;63488;48.092;-1.640;2024-02-28T02:50:01;6.57;;;4.30;;
74926;SDS011;63488;48.092;-1.640;2024-02-28T02:52:27;5.05;;;3.80;;
74926;SDS011;63488;48.092;-1.640;2024-02-28T02:54:52;6.57;;;3.97;;
74926;SDS011;63488;48.092;-1.640;2024-02-28T02:57:17;5.13;;;4.22;;
74926;SDS011;63488;48.092;-1.640;2024-02-28T02:59:43;6.95;;;4.15;;
74926;SDS011;63488;48.092;-1.640;2024-02-28T03:02:08;7.00;;;4.50;;
74926;SDS011;63488;48.092;-1.640;2024-02-28T03:04:33;5.90;;;4.60;;
74926;SDS011;63488;48.092;-1.640;2024-02-28T03:06:59;8.98;;;4.20;;
74926;SDS011;63488;48.092;-1.640;2024-02-28T03:09:24;6.22;;;4.35;;
74926;SDS011;63488;48.092;-1.640;2024-02-28T03:11:49;7.30;;;4.25;;
74926;SDS011;63488;48.092;-1.640;2024-02-28T03:14:15;5.00;;;3.65;;
74926;SDS011;63488;48.092;-1.640;2024-02-28T03:16:43;5.72;;;3.72;;
74926;SDS011;63488;48.092;-1.640;2024-02-28T03:19:10;6.60;;;4.32;;
74926;SDS011;63488;48.092;-1.640;2024-02-28T03:21:35;6.65;;;4.00;;
74926;SDS011;63488;48.092;-1.640;2024-02-28T03:24:01;7.22;;;3.80;;
74926;SDS011;63488;48.092;-1.640;2024-02-28T03:26:26;5.75;;;3.50;;
74926;SDS011;63488;48.092;-1.640;2024-02-28T03:28:52;6.30;;;3.47;;
74926;SDS011;63488;48.092;-1.640;2024-02-28T03:31:17;6.05;;;3.60;;
74926;SDS011;63488;48.092;-1.640;2024-02-28T03:33:43;6.25;;;3.75;;
74926;SDS011;63488;48.092;-1.640;2024-02-28T03:36:08;7.32;;;3.17;;
74926;SDS011;63488;48.092;-1.640;2024-02-28T03:38:33;6.13;;;3.30;;
74926;SDS011;63488;48.092;-1.640;2024-02-28T03:40:59;4.95;;;3.72;;
74926;SDS011;63488;48.092;-1.640;2024-02-28T03:43:24;7.70;;;3.88;;
74926;SDS011;63488;48.092;-1.640;2024-02-28T03:45:50;5.40;;;3.40;;
74926;SDS011;63488;48.092;-1.640;2024-02-28T03:48:15;5.95;;;3.88;;
74926;SDS011;63488;48.092;-1.640;2024-02-28T03:50:40;8.20;;;3.75;;
74926;SDS011;63488;48.092;-1.640;2024-02-28T03:53:06;6.43;;;3.35;;
74926;SDS011;63488;48.092;-1.640;2024-02-28T03:55:31;4.72;;;3.22;;
74926;SDS011;63488;48.092;-1.640;2024-02-28T03:57:57;5.05;;;3.10;;
74926;SDS011;63488;48.092;-1.640;2024-02-28T04:00:22;5.88;;;3.10;;
74926;SDS011;63488;48.092;-1.640;2024-02-28T04:02:47;6.25;;;3.05;;
74926;SDS011;63488;48.092;-1.640;2024-02-28T04:05:13;7.97;;;3.20;;
74926;SDS011;63488;48.092;-1.640;2024-02-28T04:07:38;5.40;;;2.80;;
74926;SDS011;63488;48.092;-1.640;2024-02-28T04:10:03;7.78;;;3.47;;
74926;SDS011;63488;48.092;-1.640;2024-02-28T04:12:30;5.75;;;3.20;;
74926;SDS011;63488;48.092;-1.640;2024-02-28T04:14:55;6.32;;;3.40;;
74926;SDS011;63488;48.092;-1.640;2024-02-28T04:17:21;5.70;;;3.05;;
74926;SDS011;63488;48.092;-1.640;2024-02-28T04:19:46;6.78;;;3.80;;
74926;SDS011;63488;48.092;-1.640;2024-02-28T04:22:11;6.68;;;3.05;;
74926;SDS011;63488;48.092;-1.640;2024-02-28T04:24:37;6.68;;;3.42;;
74926;SDS011;63488;48.092;-1.640;2024-02-28T04:27:02;7.05;;;3.30;;
74926;SDS011;63488;48.092;-1.640;2024-02-28T04:29:29;8.02;;;3.22;;
74926;SDS011;63488;48.092;-1.640;2024-02-28T04:31:55;4.88;;;2.88;;
74926;SDS011;63488;48.092;-1.640;2024-02-28T04:34:20;5.13;;;2.92;;
74926;SDS011;63488;48.092;-1.640;2024-02-28T04:36:45;6.25;;;3.10;;
74926;SDS011;63488;48.092;-1.640;2024-02-28T04:39:11;6.35;;;2.85;;
74926;SDS011;63488;48.092;-1.640;2024-02-28T04:41:36;5.32;;;3.10;;
74926;SDS011;63488;48.092;-1.640;2024-02-28T04:44:01;6.20;;;3.10;;
74926;SDS011;63488;48.092;-1.640;2024-02-28T04:46:27;6.85;;;3.10;;
74926;SDS011;63488;48.092;-1.640;2024-02-28T04:48:52;6.15;;;2.67;;
74926;SDS011;63488;48.092;-1.640;2024-02-28T04:51:17;6.10;;;3.13;;
74926;SDS011;63488;48.092;-1.640;2024-02-28T04:53:43;6.57;;;2.72;;
74926;SDS011;63488;48.092;-1.640;2024-02-28T04:56:08;5.40;;;3.15;;
74926;SDS011;63488;48.092;-1.640;2024-02-28T04:58:34;6.53;;;3.03;;
74926;SDS011;63488;48.092;-1.640;2024-02-28T05:01:00;6.97;;;3.17;;
74926;SDS011;63488;48.092;-1.640;2024-02-28T05:03:25;6.65;;;2.92;;
74926;SDS011;63488;48.092;-1.640;2024-02-28T05:05:51;9.48;;;3.15;;
74926;SDS011;63488;48.092;-1.640;2024-02-28T05:08:17;5.85;;;2.97;;
74926;SDS011;63488;48.092;-1.640;2024-02-28T05:10:43;6.03;;;3.15;;
74926;SDS011;63488;48.092;-1.640;2024-02-28T05:13:08;5.18;;;2.97;;
74926;SDS011;63488;48.092;-1.640;2024-02-28T05:15:33;4.50;;;2.80;;
74926;SDS011;63488;48.092;-1.640;2024-02-28T05:17:59;5.95;;;3.08;;
74926;SDS011;63488;48.092;-1.640;2024-02-28T05:20:24;6.13;;;2.85;;
74926;SDS011;63488;48.092;-1.640;2024-02-28T05:22:49;6.65;;;2.80;;
74926;SDS011;63488;48.092;-1.640;2024-02-28T05:25:15;7.45;;;2.60;;
74926;SDS011;63488;48.092;-1.640;2024-02-28T05:27:40;6.57;;;2.70;;
74926;SDS011;63488;48.092;-1.640;2024-02-28T05:30:06;5.57;;;2.97;;
74926;SDS011;63488;48.092;-1.640;2024-02-28T05:32:32;6.35;;;3.10;;
74926;SDS011;63488;48.092;-1.640;2024-02-28T05:34:57;6.63;;;2.63;;
74926;SDS011;63488;48.092;-1.640;2024-02-28T05:37:22;6.68;;;2.55;;
74926;SDS011;63488;48.092;-1.640;2024-02-28T05:39:48;7.38;;;2.70;;
74926;SDS011;63488;48.092;-1.640;2024-02-28T05:42:13;6.43;;;2.40;;
74926;SDS011;63488;48.092;-1.640;2024-02-28T05:44:39;7.88;;;2.70;;
74926;SDS011;63488;48.092;-1.640;2024-02-28T05:47:04;6.30;;;2.38;;
74926;SDS011;63488;48.092;-1.640;2024-02-28T05:49:29;7.00;;;2.40;;
74926;SDS011;63488;48.092;-1.640;2024-02-28T05:51:55;7.28;;;2.80;;
74926;SDS011;63488;48.092;-1.640;2024-02-28T05:54:21;5.38;;;2.22;;
74926;SDS011;63488;48.092;-1.640;2024-02-28T05:56:46;4.10;;;2.22;;
74926;SDS011;63488;48.092;-1.640;2024-02-28T05:59:11;6.53;;;2.67;;
74926;SDS011;63488;48.092;-1.640;2024-02-28T06:01:37;4.57;;;2.50;;
74926;SDS011;63488;48.092;-1.640;2024-02-28T06:04:03;7.70;;;2.50;;
74926;SDS011;63488;48.092;-1.640;2024-02-28T06:06:28;5.15;;;2.35;;
74926;SDS011;63488;48.092;-1.640;2024-02-28T06:08:53;5.85;;;2.70;;
74926;SDS011;63488;48.092;-1.640;2024-02-28T06:11:19;7.35;;;3.10;;
74926;SDS011;63488;48.092;-1.640;2024-02-28T06:13:44;7.82;;;2.85;;
74926;SDS011;63488;48.092;-1.640;2024-02-28T06:16:16;5.18;;;2.75;;
74926;SDS011;63488;48.092;-1.640;2024-02-28T06:18:43;7.95;;;3.17;;
74926;SDS011;63488;48.092;-1.640;2024-02-28T06:21:08;4.88;;;3.00;;
74926;SDS011;63488;48.092;-1.640;2024-02-28T06:23:33;6.30;;;3.47;;
74926;SDS011;63488;48.092;-1.640;2024-02-28T06:25:59;7.45;;;3.10;;
74926;SDS011;63488;48.092;-1.640;2024-02-28T06:28:24;8.23;;;3.40;;
74926;SDS011;63488;48.092;-1.640;2024-02-28T06:30:49;4.95;;;3.33;;
74926;SDS011;63488;48.092;-1.640;2024-02-28T06:33:15;7.20;;;3.30;;
74926;SDS011;63488;48.092;-1.640;2024-02-28T06:35:40;5.45;;;3.17;;
74926;SDS011;63488;48.092;-1.640;2024-02-28T06:38:05;6.32;;;3.13;;
74926;SDS011;63488;48.092;-1.640;2024-02-28T06:40:31;4.78;;;3.17;;
74926;SDS011;63488;48.092;-1.640;2024-02-28T06:42:56;7.72;;;4.80;;
74926;SDS011;63488;48.092;-1.640;2024-02-28T06:45:22;6.65;;;4.00;;
74926;SDS011;63488;48.092;-1.640;2024-02-28T06:47:47;7.88;;;3.95;;
74926;SDS011;63488;48.092;-1.640;2024-02-28T06:50:13;7.95;;;3.78;;
74926;SDS011;63488;48.092;-1.640;2024-02-28T06:52:39;8.88;;;4.18;;
74926;SDS011;63488;48.092;-1.640;2024-02-28T06:55:04;9.07;;;4.05;;
74926;SDS011;63488;48.092;-1.640;2024-02-28T06:57:35;8.10;;;3.92;;
74926;SDS011;63488;48.092;-1.640;2024-02-28T07:00:01;9.38;;;4.93;;
74926;SDS011;63488;48.092;-1.640;2024-02-28T07:02:26;9.77;;;4.35;;
74926;SDS011;63488;48.092;-1.640;2024-02-28T07:04:51;7.88;;;4.70;;
74926;SDS011;63488;48.092;-1.640;2024-02-28T07:07:17;10.18;;;5.53;;
74926;SDS011;63488;48.092;-1.640;2024-02-28T07:09:42;11.50;;;5.45;;
74926;SDS011;63488;48.092;-1.640;2024-02-28T07:12:07;11.90;;;5.90;;
74926;SDS011;63488;48.092;-1.640;2024-02-28T07:14:33;11.07;;;5.38;;
74926;SDS011;63488;48.092;-1.640;2024-02-28T07:16:58;9.25;;;5.88;;
74926;SDS011;63488;48.092;-1.640;2024-02-28T07:19:23;11.05;;;6.25;;
74926;SDS011;63488;48.092;-1.640;2024-02-28T07:21:49;11.35;;;6.20;;
74926;SDS011;63488;48.092;-1.640;2024-02-28T07:24:14;9.50;;;6.00;;
74926;SDS011;63488;48.092;-1.640;2024-02-28T07:26:39;10.27;;;5.47;;
74926;SDS011;63488;48.092;-1.640;2024-02-28T07:29:06;7.70;;;4.88;;
74926;SDS011;63488;48.092;-1.640;2024-02-28T07:31:31;8.82;;;5.47;;
74926;SDS011;63488;48.092;-1.640;2024-02-28T07:33:56;9.65;;;5.45;;
74926;SDS011;63488;48.092;-1.640;2024-02-28T07:36:22;8.07;;;4.78;;
74926;SDS011;63488;48.092;-1.640;2024-02-28T07:38:47;9.18;;;4.60;;
74926;SDS011;63488;48.092;-1.640;2024-02-28T07:41:13;7.53;;;5.00;;
74926;SDS011;63488;48.092;-1.640;2024-02-28T07:43:41;7.70;;;4.55;;
74926;SDS011;63488;48.092;-1.640;2024-02-28T07:46:10;7.15;;;4.70;;
74926;SDS011;63488;48.092;-1.640;2024-02-28T07:48:36;6.93;;;4.50;;
74926;SDS011;63488;48.092;-1.640;2024-02-28T07:51:03;7.50;;;4.45;;
74926;SDS011;63488;48.092;-1.640;2024-02-28T07:53:29;7.55;;;4.65;;
74926;SDS011;63488;48.092;-1.640;2024-02-28T07:55:55;6.60;;;4.93;;
74926;SDS011;63488;48.092;-1.640;2024-02-28T07:58:20;6.20;;;4.53;;
74926;SDS011;63488;48.092;-1.640;2024-02-28T08:00:45;8.23;;;5.38;;
74926;SDS011;63488;48.092;-1.640;2024-02-28T08:03:10;8.05;;;5.00;;
74926;SDS011;63488;48.092;-1.640;2024-02-28T08:05:36;7.25;;;5.32;;
74926;SDS011;63488;48.092;-1.640;2024-02-28T08:08:05;8.30;;;5.60;;
74926;SDS011;63488;48.092;-1.640;2024-02-28T08:10:30;7.10;;;4.88;;
74926;SDS011;63488;48.092;-1.640;2024-02-28T08:12:55;5.55;;;4.35;;
74926;SDS011;63488;48.092;-1.640;2024-02-28T08:15:20;6.32;;;4.55;;
74926;SDS011;63488;48.092;-1.640;2024-02-28T08:17:46;6.28;;;4.75;;
74926;SDS011;63488;48.092;-1.640;2024-02-28T08:20:11;5.88;;;4.63;;
74926;SDS011;63488;48.092;-1.640;2024-02-28T08:22:37;6.10;;;4.63;;
74926;SDS011;63488;48.092;-1.640;2024-02-28T08:25:02;7.88;;;4.63;;
74926;SDS011;63488;48.092;-1.640;2024-02-28T08:27:27;6.32;;;4.32;;
74926;SDS011;63488;48.092;-1.640;2024-02-28T08:29:53;6.32;;;4.85;;
74926;SDS011;63488;48.092;-1.640;2024-02-28T08:32:19;5.88;;;4.63;;
74926;SDS011;63488;48.092;-1.640;2024-02-28T08:34:45;6.32;;;4.53;;
74926;SDS011;63488;48.092;-1.640;2024-02-28T08:37:15;6.03;;;5.07;;
74926;SDS011;63488;48.092;-1.640;2024-02-28T08:39:42;6.37;;;4.37;;
74926;SDS011;63488;48.092;-1.640;2024-02-28T08:42:07;5.35;;;4.03;;
74926;SDS011;63488;48.092;-1.640;2024-02-28T08:44:32;5.57;;;4.40;;
74926;SDS011;63488;48.092;-1.640;2024-02-28T08:46:58;5.35;;;4.40;;
74926;SDS011;63488;48.092;-1.640;2024-02-28T08:49:23;5.53;;;4.10;;
74926;SDS011;63488;48.092;-1.640;2024-02-28T08:51:48;4.90;;;3.75;;
74926;SDS011;63488;48.092;-1.640;2024-02-28T08:54:14;5.95;;;4.03;;
74926;SDS011;63488;48.092;-1.640;2024-02-28T08:56:39;4.93;;;3.85;;
74926;SDS011;63488;48.092;-1.640;2024-02-28T08:59:04;5.55;;;3.92;;
74926;SDS011;63488;48.092;-1.640;2024-02-28T09:01:30;3.95;;;3.42;;
74926;SDS011;63488;48.092;-1.640;2024-02-28T09:03:55;5.05;;;3.42;;
74926;SDS011;63488;48.092;-1.640;2024-02-28T09:06:20;4.68;;;3.47;;
74926;SDS011;63488;48.092;-1.640;2024-02-28T09:08:46;4.47;;;3.55;;
74926;SDS011;63488;48.092;-1.640;2024-02-28T09:11:11;7.22;;;3.63;;
74926;SDS011;63488;48.092;-1.640;2024-02-28T09:13:37;6.00;;;3.60;;
74926;SDS011;63488;48.092;-1.640;2024-02-28T09:16:03;5.03;;;3.67;;
74926;SDS011;63488;48.092;-1.640;2024-02-28T09:18:28;4.88;;;3.63;;
74926;SDS011;63488;48.092;-1.640;2024-02-28T09:20:54;3.88;;;3.45;;
74926;SDS011;63488;48.092;-1.640;2024-02-28T09:23:19;3.85;;;3.42;;
74926;SDS011;63488;48.092;-1.640;2024-02-28T09:25:45;5.38;;;3.47;;
74926;SDS011;63488;48.092;-1.640;2024-02-28T09:28:10;5.32;;;4.00;;
74926;SDS011;63488;48.092;-1.640;2024-02-28T09:30:38;4.68;;;3.72;;
74926;SDS011;63488;48.092;-1.640;2024-02-28T09:33:04;4.22;;;3.63;;
74926;SDS011;63488;48.092;-1.640;2024-02-28T09:35:29;4.80;;;3.38;;
74926;SDS011;63488;48.092;-1.640;2024-02-28T09:37:54;4.30;;;3.80;;
74926;SDS011;63488;48.092;-1.640;2024-02-28T09:40:20;4.88;;;3.88;;
74926;SDS011;63488;48.092;-1.640;2024-02-28T09:42:57;4.32;;;3.47;;
74926;SDS011;63488;48.092;-1.640;2024-02-28T09:45:25;4.40;;;3.60;;
74926;SDS011;63488;48.092;-1.640;2024-02-28T09:47:51;4.70;;;3.50;;
74926;SDS011;63488;48.092;-1.640;2024-02-28T09:50:17;4.18;;;3.47;;
74926;SDS011;63488;48.092;-1.640;2024-02-28T09:52:43;4.35;;;3.63;;
74926;SDS011;63488;48.092;-1.640;2024-02-28T09:55:08;3.70;;;3.20;;
74926;SDS011;63488;48.092;-1.640;2024-02-28T09:57:33;3.53;;;2.55;;
74926;SDS011;63488;48.092;-1.640;2024-02-28T10:00:00;4.38;;;3.45;;
74926;SDS011;63488;48.092;-1.640;2024-02-28T10:02:26;4.22;;;3.25;;
74926;SDS011;63488;48.092;-1.640;2024-02-28T10:04:52;4.38;;;3.30;;
74926;SDS011;63488;48.092;-1.640;2024-02-28T10:07:17;3.97;;;3.33;;
74926;SDS011;63488;48.092;-1.640;2024-02-28T10:09:43;3.78;;;3.25;;
74926;SDS011;63488;48.092;-1.640;2024-02-28T10:12:08;3.90;;;3.50;;
74926;SDS011;63488;48.092;-1.640;2024-02-28T10:14:34;3.90;;;3.30;;
74926;SDS011;63488;48.092;-1.640;2024-02-28T10:16:59;3.72;;;3.10;;
74926;SDS011;63488;48.092;-1.640;2024-02-28T10:19:24;3.58;;;3.13;;
74926;SDS011;63488;48.092;-1.640;2024-02-28T10:21:50;3.20;;;2.70;;
74926;SDS011;63488;48.092;-1.640;2024-02-28T10:24:15;3.83;;;3.17;;
74926;SDS011;63488;48.092;-1.640;2024-02-28T10:26:47;2.72;;;2.35;;
74926;SDS011;63488;48.092;-1.640;2024-02-28T10:29:24;2.80;;;2.50;;
74926;SDS011;63488;48.092;-1.640;2024-02-28T10:31:52;2.72;;;2.20;;
74926;SDS011;63488;48.092;-1.640;2024-02-28T10:34:20;2.47;;;2.10;;
74926;SDS011;63488;48.092;-1.640;2024-02-28T10:36:45;3.60;;;2.47;;
74926;SDS011;63488;48.092;-1.640;2024-02-28T10:39:11;2.85;;;2.55;;
74926;SDS011;63488;48.092;-1.640;2024-02-28T10:41:40;5.28;;;3.13;;
74926;SDS011;63488;48.092;-1.640;2024-02-28T10:44:06;3.07;;;2.70;;
74926;SDS011;63488;48.092;-1.640;2024-02-28T10:46:31;3.83;;;3.33;;
74926;SDS011;63488;48.092;-1.640;2024-02-28T10:48:57;3.50;;;2.90;;
74926;SDS011;63488;48.092;-1.640;2024-02-28T10:51:25;3.97;;;3.22;;
74926;SDS011;63488;48.092;-1.640;2024-02-28T10:54:10;5.40;;;3.83;;
74926;SDS011;63488;48.092;-1.640;2024-02-28T10:56:36;6.60;;;4.32;;
74926;SDS011;63488;48.092;-1.640;2024-02-28T10:59:03;6.45;;;4.45;;
74926;SDS011;63488;48.092;-1.640;2024-02-28T11:01:31;4.80;;;4.23;;
74926;SDS011;63488;48.092;-1.640;2024-02-28T11:03:56;5.63;;;4.53;;
74926;SDS011;63488;48.092;-1.640;2024-02-28T11:06:22;5.63;;;4.85;;
74926;SDS011;63488;48.092;-1.640;2024-02-28T11:08:48;5.75;;;4.70;;
74926;SDS011;63488;48.092;-1.640;2024-02-28T11:11:14;5.57;;;4.80;;
74926;SDS011;63488;48.092;-1.640;2024-02-28T11:13:50;8.20;;;6.93;;
74926;SDS011;63488;48.092;-1.640;2024-02-28T11:16:16;7.50;;;5.13;;
74926;SDS011;63488;48.092;-1.640;2024-02-28T11:18:48;6.65;;;5.22;;
74926;SDS011;63488;48.092;-1.640;2024-02-28T11:21:17;6.53;;;5.47;;
74926;SDS011;63488;48.092;-1.640;2024-02-28T11:23:45;6.57;;;5.25;;
74926;SDS011;63488;48.092;-1.640;2024-02-28T11:26:11;5.40;;;4.70;;
74926;SDS011;63488;48.092;-1.640;2024-02-28T11:28:38;6.88;;;4.90;;
74926;SDS011;63488;48.092;-1.640;2024-02-28T11:31:03;6.07;;;4.78;;
74926;SDS011;63488;48.092;-1.640;2024-02-28T11:33:28;5.53;;;4.55;;
74926;SDS011;63488;48.092;-1.640;2024-02-28T11:35:57;4.60;;;3.97;;
74926;SDS011;63488;48.092;-1.640;2024-02-28T11:38:26;4.95;;;4.05;;
74926;SDS011;63488;48.092;-1.640;2024-02-28T11:40:52;5.38;;;4.30;;
74926;SDS011;63488;48.092;-1.640;2024-02-28T11:43:17;6.05;;;4.22;;
74926;SDS011;63488;48.092;-1.640;2024-02-28T11:45:43;5.10;;;4.00;;
74926;SDS011;63488;48.092;-1.640;2024-02-28T11:48:11;4.40;;;3.70;;
74926;SDS011;63488;48.092;-1.640;2024-02-28T11:50:37;4.82;;;3.83;;
74926;SDS011;63488;48.092;-1.640;2024-02-28T11:53:02;6.00;;;4.60;;
74926;SDS011;63488;48.092;-1.640;2024-02-28T11:55:30;5.50;;;4.35;;
74926;SDS011;63488;48.092;-1.640;2024-02-28T11:57:55;4.88;;;3.78;;
74926;SDS011;63488;48.092;-1.640;2024-02-28T12:00:20;4.30;;;3.38;;
74926;SDS011;63488;48.092;-1.640;2024-02-28T12:02:46;4.10;;;3.45;;
74926;SDS011;63488;48.092;-1.640;2024-02-28T12:05:11;4.32;;;3.80;;
74926;SDS011;63488;48.092;-1.640;2024-02-28T12:07:36;4.55;;;3.30;;
74926;SDS011;63488;48.092;-1.640;2024-02-28T12:10:02;5.35;;;4.10;;
74926;SDS011;63488;48.092;-1.640;2024-02-28T12:12:27;5.20;;;3.88;;
74926;SDS011;63488;48.092;-1.640;2024-02-28T12:14:57;5.40;;;4.38;;
74926;SDS011;63488;48.092;-1.640;2024-02-28T12:17:22;4.03;;;3.58;;
74926;SDS011;63488;48.092;-1.640;2024-02-28T12:19:49;4.50;;;3.45;;
74926;SDS011;63488;48.092;-1.640;2024-02-28T12:22:16;5.93;;;4.95;;
74926;SDS011;63488;48.092;-1.640;2024-02-28T12:24:41;5.22;;;4.25;;
74926;SDS011;63488;48.092;-1.640;2024-02-28T12:27:06;6.20;;;4.63;;
74926;SDS011;63488;48.092;-1.640;2024-02-28T12:29:32;6.03;;;4.50;;
74926;SDS011;63488;48.092;-1.640;2024-02-28T12:31:57;5.30;;;3.88;;
74926;SDS011;63488;48.092;-1.640;2024-02-28T12:34:23;4.45;;;3.85;;
74926;SDS011;63488;48.092;-1.640;2024-02-28T12:36:48;4.38;;;3.33;;
74926;SDS011;63488;48.092;-1.640;2024-02-28T12:39:13;5.05;;;3.83;;
74926;SDS011;63488;48.092;-1.640;2024-02-28T12:41:38;5.30;;;4.22;;
74926;SDS011;63488;48.092;-1.640;2024-02-28T12:44:07;5.50;;;4.68;;
74926;SDS011;63488;48.092;-1.640;2024-02-28T12:46:34;5.78;;;3.97;;
74926;SDS011;63488;48.092;-1.640;2024-02-28T12:48:59;5.55;;;4.25;;
74926;SDS011;63488;48.092;-1.640;2024-02-28T12:51:40;4.60;;;3.88;;
74926;SDS011;63488;48.092;-1.640;2024-02-28T12:54:06;5.80;;;4.35;;
74926;SDS011;63488;48.092;-1.640;2024-02-28T12:56:32;5.00;;;4.10;;
74926;SDS011;63488;48.092;-1.640;2024-02-28T12:58:58;4.30;;;3.65;;
74926;SDS011;63488;48.092;-1.640;2024-02-28T13:01:24;4.78;;;3.92;;
74926;SDS011;63488;48.092;-1.640;2024-02-28T13:03:49;5.03;;;3.78;;
74926;SDS011;63488;48.092;-1.640;2024-02-28T13:06:15;4.78;;;3.75;;
74926;SDS011;63488;48.092;-1.640;2024-02-28T13:08:40;6.13;;;3.70;;
74926;SDS011;63488;48.092;-1.640;2024-02-28T13:11:05;4.25;;;3.60;;
74926;SDS011;63488;48.092;-1.640;2024-02-28T13:13:32;4.85;;;3.53;;
74926;SDS011;63488;48.092;-1.640;2024-02-28T13:15:58;4.13;;;3.33;;
74926;SDS011;63488;48.092;-1.640;2024-02-28T13:18:23;6.03;;;3.70;;
74926;SDS011;63488;48.092;-1.640;2024-02-28T13:20:50;4.53;;;4.00;;
74926;SDS011;63488;48.092;-1.640;2024-02-28T13:23:16;5.60;;;3.47;;
74926;SDS011;63488;48.092;-1.640;2024-02-28T13:25:41;4.28;;;2.83;;
74926;SDS011;63488;48.092;-1.640;2024-02-28T13:28:07;4.32;;;3.35;;
74926;SDS011;63488;48.092;-1.640;2024-02-28T13:30:32;3.80;;;3.40;;
74926;SDS011;63488;48.092;-1.640;2024-02-28T13:33:00;4.82;;;3.30;;
74926;SDS011;63488;48.092;-1.640;2024-02-28T13:35:25;3.83;;;2.90;;
74926;SDS011;63488;48.092;-1.640;2024-02-28T13:37:50;4.97;;;3.33;;
74926;SDS011;63488;48.092;-1.640;2024-02-28T13:40:18;3.17;;;2.70;;
74926;SDS011;63488;48.092;-1.640;2024-02-28T13:42:43;4.22;;;3.13;;
74926;SDS011;63488;48.092;-1.640;2024-02-28T13:45:10;3.92;;;3.10;;
74926;SDS011;63488;48.092;-1.640;2024-02-28T13:47:36;3.53;;;3.05;;
74926;SDS011;63488;48.092;-1.640;2024-02-28T13:50:01;2.90;;;2.63;;
74926;SDS011;63488;48.092;-1.640;2024-02-28T13:52:27;2.95;;;2.60;;
74926;SDS011;63488;48.092;-1.640;2024-02-28T13:54:52;2.95;;;2.45;;
74926;SDS011;63488;48.092;-1.640;2024-02-28T13:57:17;2.60;;;2.30;;
74926;SDS011;63488;48.092;-1.640;2024-02-28T13:59:43;2.67;;;2.10;;
74926;SDS011;63488;48.092;-1.640;2024-02-28T14:02:11;3.28;;;2.38;;
74926;SDS011;63488;48.092;-1.640;2024-02-28T14:04:37;3.17;;;2.30;;
74926;SDS011;63488;48.092;-1.640;2024-02-28T14:07:03;3.10;;;2.38;;
74926;SDS011;63488;48.092;-1.640;2024-02-28T14:09:28;3.15;;;2.17;;
74926;SDS011;63488;48.092;-1.640;2024-02-28T14:11:53;4.53;;;2.60;;
74926;SDS011;63488;48.092;-1.640;2024-02-28T14:14:20;3.30;;;2.97;;
74926;SDS011;63488;48.092;-1.640;2024-02-28T14:16:45;3.25;;;2.53;;
74926;SDS011;63488;48.092;-1.640;2024-02-28T14:19:11;3.10;;;2.47;;
74926;SDS011;63488;48.092;-1.640;2024-02-28T14:21:36;3.33;;;2.55;;
74926;SDS011;63488;48.092;-1.640;2024-02-28T14:24:01;3.47;;;2.55;;
74926;SDS011;63488;48.092;-1.640;2024-02-28T14:26:27;3.00;;;2.30;;